Quick Links (Output Below):   Max & Min Temps   /   Climate Reports   /   Zone Forecasts
River Forecasts   /   Forestry Forecasts   /   Aviation Forecasts   /   Radars   /   Features

Terminal Aerodrome Forecast (Fort Smith)

Pick a Site:
Arkadelphia | El Dorado | Fayetteville | Fort Smith | Harrison | Highfill | Hot Springs | Jonesboro
Little Rock | Monticello | Mountain Home | Pine Bluff | Texarkana
 Forecast 

KFSM 310520Z 3106/0106 30009KT P6SM SKC
     FM311300 34013KT P6SM BKN025
     FM311800 35014G21KT P6SM SKC
     FM010000 01005KT P6SM SKC=


 Latest METARs (Observations) 
How to Decode METARs
05Z KFSM 310453Z 27008KT 8SM CLR 11/07 A3012 RMK AO2 SLP196
         T01110072
         
04Z KFSM 310353Z 27006KT 9SM CLR 11/07 A3011 RMK AO2 SLP194 T01110072
         TSNO
         
03Z KFSM 310253Z 25003KT 10SM CLR 13/07 A3009 RMK AO2 SLP188 T01330067
         53015
         
02Z KFSM 310153Z 30007KT 10SM CLR 18/06 A3008 RMK AO2 SLP183
         T01780056
         
01Z KFSM 310053Z 28005KT 10SM CLR 14/07 A3006 RMK AO2 SLP177
         T01440072
         
00Z KFSM 302353Z 31006KT 10SM CLR 19/06 A3005 RMK AO2 SLP173 T01940061
         10239 20194 53007
         
***** Today's Observations (Above) *****


23Z KFSM 302253Z 30006KT 10SM CLR 22/06 A3003 RMK AO2 SLP168
         T02220056
         
22Z KFSM 302153Z 28014KT 10SM CLR 23/08 A3002 RMK AO2 SLP162
         T02330083
         
21Z KFSM 302053Z 28017KT 10SM CLR 24/07 A3002 RMK AO2 PK WND
         26026/2023 SLP165 T02390072 56026
         
20Z KFSM 301953Z 26016KT 10SM CLR 24/04 A3004 RMK AO2 SLP169
         T02390044
         
***** Yesterday's Observations (Above) *****


Back to Main Page
http://www.srh.noaa.gov/lzk/qfcst.php

USA.gov is the U.S. government's official web portal to all federal, state and local government web resources and services.